createdAt,value
2023-05-12T00:01:26.946Z,69.96
2023-05-12T00:03:54.118Z,69.39
2023-05-12T00:06:21.243Z,69.66
2023-05-12T00:08:48.205Z,69.50
2023-05-12T00:11:15.172Z,69.96
2023-05-12T00:13:42.091Z,69.92
2023-05-12T00:16:09.650Z,70.34
2023-05-12T00:18:36.509Z,70.86
2023-05-12T00:21:03.530Z,70.52
2023-05-12T00:23:30.366Z,71.20
2023-05-12T00:25:57.208Z,72.14
2023-05-12T00:28:23.957Z,71.29
2023-05-12T00:30:50.792Z,72.55
2023-05-12T00:33:17.636Z,72.30
2023-05-12T00:35:47.350Z,72.34
2023-05-12T00:38:14.394Z,71.65
2023-05-12T00:40:41.539Z,71.63
2023-05-12T00:43:08.393Z,72.10
2023-05-12T00:45:36.392Z,72.22
2023-05-12T00:48:04.929Z,71.85
2023-05-12T00:50:32.090Z,71.80
2023-05-12T00:53:01.489Z,71.39
2023-05-12T00:55:30.600Z,72.81
2023-05-12T00:57:58.576Z,74.68
2023-05-12T01:00:26.317Z,75.02
2023-05-12T01:02:53.845Z,74.24
2023-05-12T01:05:21.029Z,72.74
2023-05-12T01:07:49.303Z,72.18
2023-05-12T01:10:21.745Z,72.62
2023-05-12T01:12:48.927Z,73.10
2023-05-12T01:15:17.713Z,75.33
2023-05-12T01:17:52.742Z,75.36
2023-05-12T01:20:22.461Z,77.03
2023-05-12T01:22:50.125Z,77.41
2023-05-12T01:25:22.082Z,77.77
2023-05-12T01:27:50.054Z,78.35
2023-05-12T01:30:18.529Z,79.21
2023-05-12T01:32:45.508Z,78.48
2023-05-12T01:35:12.738Z,78.79
2023-05-12T01:37:45.849Z,78.83
2023-05-12T01:40:13.481Z,80.59
2023-05-12T01:42:42.058Z,80.33
2023-05-12T01:45:10.333Z,80.40
2023-05-12T01:47:37.853Z,81.28
2023-05-12T01:50:09.954Z,81.79
2023-05-12T01:52:37.310Z,81.82
2023-05-12T01:55:07.734Z,81.27
2023-05-12T01:57:39.609Z,81.72
2023-05-12T02:00:07.463Z,81.15
2023-05-12T02:02:42.764Z,81.17
2023-05-12T02:05:11.078Z,80.52
2023-05-12T02:07:37.877Z,81.69
2023-05-12T02:10:06.205Z,82.39
2023-05-12T02:12:34.168Z,82.59
2023-05-12T02:15:01.627Z,82.56
2023-05-12T02:17:29.929Z,81.32
2023-05-12T02:19:58.893Z,81.93
2023-05-12T02:22:26.247Z,81.74
2023-05-12T02:24:53.191Z,81.45
2023-05-12T02:27:20.142Z,81.53
2023-05-12T02:29:47.594Z,80.66
2023-05-12T02:32:15.052Z,82.11
2023-05-12T02:34:43.446Z,82.26
2023-05-12T02:37:10.388Z,81.31
2023-05-12T02:39:37.339Z,81.16
2023-05-12T02:42:04.775Z,80.90
2023-05-12T02:44:31.849Z,82.88
2023-05-12T02:46:59.074Z,82.42
2023-05-12T02:49:25.830Z,81.97
2023-05-12T02:51:55.036Z,81.94
2023-05-12T02:54:22.477Z,81.79
2023-05-12T02:56:49.315Z,81.41
2023-05-12T02:59:16.389Z,81.65
2023-05-12T03:01:43.226Z,83.01
2023-05-12T03:04:10.349Z,83.89
2023-05-12T03:06:37.512Z,84.95
2023-05-12T03:09:04.753Z,85.69
2023-05-12T03:11:31.592Z,84.41
2023-05-12T03:13:58.751Z,81.95
2023-05-12T03:16:25.616Z,79.12
2023-05-12T03:18:53.174Z,76.51
2023-05-12T03:21:19.990Z,74.52
2023-05-12T03:23:46.836Z,73.34
2023-05-12T03:26:13.569Z,71.86
2023-05-12T03:28:40.413Z,70.30
2023-05-12T03:31:07.306Z,66.40
2023-05-12T03:33:34.197Z,66.15
2023-05-12T03:36:01.142Z,63.06
2023-05-12T03:38:28.088Z,62.88
2023-05-12T03:41:05.781Z,61.31
2023-05-12T03:43:32.855Z,60.53
2023-05-12T03:46:00.894Z,58.92
2023-05-12T03:48:28.105Z,57.43
2023-05-12T03:50:54.995Z,56.32
2023-05-12T03:53:21.944Z,54.85
2023-05-12T03:55:48.828Z,54.41
2023-05-12T03:58:16.338Z,52.50
2023-05-12T04:00:44.204Z,51.96
2023-05-12T04:03:11.401Z,50.85
2023-05-12T04:05:39.018Z,49.75
2023-05-12T04:08:05.964Z,48.98
2023-05-12T04:10:32.807Z,47.11
2023-05-12T04:12:59.644Z,46.97
2023-05-12T04:15:27.004Z,45.70
2023-05-12T04:17:53.989Z,45.39
2023-05-12T04:20:21.999Z,44.50
2023-05-12T04:22:48.963Z,44.02
2023-05-12T04:25:15.806Z,42.94
2023-05-12T04:27:42.751Z,42.44
2023-05-12T04:30:09.637Z,42.41
2023-05-12T04:32:38.413Z,41.47
2023-05-12T04:35:07.266Z,41.66
2023-05-12T04:37:34.738Z,41.03
2023-05-12T04:40:01.779Z,40.66
2023-05-12T04:42:30.468Z,41.31
2023-05-12T04:44:57.514Z,42.08
2023-05-12T04:47:24.388Z,41.40
2023-05-12T04:49:51.603Z,40.24
2023-05-12T04:52:18.457Z,40.46
2023-05-12T04:54:45.593Z,39.51
2023-05-12T04:57:12.543Z,39.82
2023-05-12T04:59:41.295Z,38.78
2023-05-12T05:02:09.608Z,38.24
2023-05-12T05:04:37.063Z,38.45
2023-05-12T05:07:05.038Z,38.97
2023-05-12T05:09:33.851Z,38.60
2023-05-12T05:12:01.989Z,38.36
2023-05-12T05:14:29.048Z,37.16
2023-05-12T05:16:57.313Z,36.00
2023-05-12T05:19:35.238Z,34.75
2023-05-12T05:22:06.664Z,34.13
2023-05-12T05:24:33.507Z,35.21
2023-05-12T05:27:00.453Z,33.80
2023-05-12T05:29:28.134Z,32.27
2023-05-12T05:31:55.188Z,32.62
2023-05-12T05:34:22.274Z,32.93
2023-05-12T05:36:49.563Z,31.69
2023-05-12T05:39:16.711Z,28.89
2023-05-12T05:41:43.552Z,27.39
2023-05-12T05:44:10.499Z,30.07
2023-05-12T05:46:37.536Z,30.55
2023-05-12T05:49:04.489Z,30.63
2023-05-12T05:51:32.742Z,30.10
2023-05-12T05:54:00.017Z,29.62
2023-05-12T05:56:26.961Z,30.84
2023-05-12T05:58:54.036Z,30.98
2023-05-12T06:01:20.804Z,31.12
2023-05-12T06:03:47.902Z,32.22
2023-05-12T06:06:16.589Z,31.64
2023-05-12T06:08:43.834Z,31.76
2023-05-12T06:11:11.596Z,31.17
2023-05-12T06:13:38.435Z,32.01
2023-05-12T06:16:05.592Z,30.65
2023-05-12T06:18:37.537Z,31.52
2023-05-12T06:21:05.619Z,29.89
2023-05-12T06:23:32.979Z,32.10
2023-05-12T06:25:59.818Z,32.52
2023-05-12T06:28:28.010Z,31.16
2023-05-12T06:30:54.830Z,30.82
2023-05-12T06:33:21.683Z,31.63
2023-05-12T06:35:48.534Z,31.35
2023-05-12T06:38:15.981Z,31.51
2023-05-12T06:40:44.660Z,31.69
2023-05-12T06:43:12.540Z,30.60
2023-05-12T06:45:39.781Z,30.36
2023-05-12T06:48:08.787Z,29.95
2023-05-12T06:50:35.956Z,29.07
2023-05-12T06:53:03.200Z,31.05
2023-05-12T06:55:30.127Z,30.80
2023-05-12T06:57:57.079Z,32.59
2023-05-12T07:00:25.138Z,33.06
2023-05-12T07:02:52.364Z,32.17
2023-05-12T07:05:20.611Z,32.80
2023-05-12T07:07:47.711Z,33.50
2023-05-12T07:10:14.870Z,31.31
2023-05-12T07:12:41.821Z,30.97
2023-05-12T07:15:09.564Z,31.30
2023-05-12T07:17:36.565Z,32.52
2023-05-12T07:20:05.200Z,31.84
2023-05-12T07:22:32.144Z,30.55
2023-05-12T07:24:59.220Z,32.25
2023-05-12T07:27:26.442Z,32.39
2023-05-12T07:29:53.276Z,32.65
2023-05-12T07:32:20.137Z,32.55
2023-05-12T07:34:46.862Z,32.00
2023-05-12T07:37:13.813Z,31.91
2023-05-12T07:39:40.762Z,32.17
2023-05-12T07:42:08.518Z,31.09
2023-05-12T07:44:35.870Z,28.78
2023-05-12T07:47:02.768Z,28.95
2023-05-12T07:49:29.664Z,28.67
2023-05-12T07:51:56.503Z,29.37
2023-05-12T07:54:23.561Z,28.96
2023-05-12T07:56:50.299Z,29.08
2023-05-12T07:59:17.132Z,29.81
2023-05-12T08:01:44.001Z,29.96
2023-05-12T08:04:11.143Z,30.73
2023-05-12T08:06:38.168Z,31.03
2023-05-12T08:09:05.015Z,30.60
2023-05-12T08:11:32.270Z,30.22
2023-05-12T08:13:59.824Z,30.14
2023-05-12T08:16:26.914Z,31.11
2023-05-12T08:18:53.734Z,32.45
2023-05-12T08:21:20.554Z,32.73
2023-05-12T08:23:47.503Z,32.74
2023-05-12T08:26:14.350Z,33.45
2023-05-12T08:28:41.281Z,34.73
2023-05-12T08:31:08.171Z,35.37
2023-05-12T08:33:35.691Z,36.09
2023-05-12T08:36:02.951Z,35.46
2023-05-12T08:38:31.324Z,34.90
2023-05-12T08:41:22.629Z,35.05
2023-05-12T08:43:51.527Z,35.12
2023-05-12T08:46:20.756Z,34.67
2023-05-12T08:48:51.760Z,34.99
2023-05-12T08:51:19.322Z,32.53
2023-05-12T08:53:48.413Z,33.05
2023-05-12T08:58:49.367Z,33.69
2023-05-12T09:01:17.629Z,33.22
2023-05-12T09:03:44.996Z,33.20
2023-05-12T09:06:12.863Z,32.89
2023-05-12T09:08:40.334Z,32.95
2023-05-12T09:11:10.854Z,32.97
2023-05-12T09:14:01.143Z,33.41
2023-05-12T09:16:50.381Z,33.08
2023-05-12T09:19:21.041Z,32.65
2023-05-12T09:21:48.399Z,32.77
2023-05-12T09:24:15.236Z,32.61
2023-05-12T09:26:46.944Z,32.51
2023-05-12T09:29:24.046Z,33.32
2023-05-12T09:31:53.011Z,33.22
2023-05-12T09:34:37.833Z,32.77
2023-05-12T09:37:06.005Z,32.43
2023-05-12T09:39:33.571Z,32.55
2023-05-12T09:42:00.433Z,32.75
2023-05-12T09:44:30.444Z,32.61
2023-05-12T09:47:06.815Z,32.23
2023-05-12T09:49:33.738Z,32.35
2023-05-12T09:52:00.685Z,31.93
2023-05-12T09:54:29.259Z,31.86
2023-05-12T09:57:08.087Z,32.11
2023-05-12T09:59:37.975Z,31.91
2023-05-12T10:02:08.611Z,31.20
2023-05-12T10:04:52.620Z,31.53
2023-05-12T10:07:22.739Z,31.35
2023-05-12T10:09:49.969Z,30.83
2023-05-12T10:12:16.990Z,31.45
2023-05-12T10:14:44.363Z,30.97
2023-05-12T10:17:12.059Z,31.92
2023-05-12T10:19:41.515Z,31.65
2023-05-12T10:22:15.288Z,30.86
2023-05-12T10:24:43.286Z,30.62
2023-05-12T10:27:11.359Z,30.87
2023-05-12T10:29:39.123Z,30.81
2023-05-12T10:32:06.578Z,31.00
2023-05-12T10:34:36.306Z,31.34
2023-05-12T10:37:10.259Z,31.56
2023-05-12T10:39:46.564Z,31.68
2023-05-12T10:42:17.201Z,30.45
2023-05-12T10:44:50.701Z,30.24
2023-05-12T10:47:17.859Z,29.87
2023-05-12T10:49:44.684Z,29.88
2023-05-12T10:52:13.388Z,30.36
2023-05-12T10:54:45.203Z,29.78
2023-05-12T10:57:17.869Z,29.96
2023-05-12T10:59:51.958Z,30.61
2023-05-12T11:02:26.182Z,30.95
2023-05-12T11:05:05.294Z,31.16
2023-05-12T11:07:35.290Z,31.01
2023-05-12T11:10:05.356Z,30.59
2023-05-12T11:12:36.875Z,30.94
2023-05-12T11:15:06.226Z,31.22
2023-05-12T11:17:33.669Z,31.49
2023-05-12T11:20:00.923Z,31.36
2023-05-12T11:22:28.083Z,31.35
2023-05-12T11:24:55.539Z,31.38
2023-05-12T11:27:23.873Z,31.48
2023-05-12T11:30:06.555Z,31.47
2023-05-12T11:32:33.611Z,30.90
2023-05-12T11:35:12.320Z,31.17
2023-05-12T11:37:41.210Z,31.68
2023-05-12T11:40:22.545Z,31.36
2023-05-12T11:42:51.921Z,30.91
2023-05-12T11:45:27.957Z,31.05
2023-05-12T11:48:16.057Z,31.30
2023-05-12T11:50:48.908Z,32.31
2023-05-12T11:53:18.489Z,31.65
2023-05-12T11:55:50.058Z,31.03
2023-05-12T11:58:29.993Z,31.29
2023-05-12T12:01:08.618Z,31.44
2023-05-12T12:03:47.132Z,31.30
2023-05-12T12:06:15.302Z,31.15
2023-05-12T12:08:55.864Z,30.98
2023-05-12T12:11:27.017Z,31.48
2023-05-12T12:13:57.848Z,31.02
2023-05-12T12:16:29.880Z,30.98
2023-05-12T12:18:57.421Z,30.48
2023-05-12T12:21:25.134Z,31.01
2023-05-12T12:23:53.102Z,31.45
2023-05-12T12:26:22.613Z,30.76
2023-05-12T12:28:49.778Z,30.59
2023-05-12T12:31:20.554Z,30.55
2023-05-12T12:33:47.438Z,29.79
2023-05-12T12:36:15.296Z,29.49
2023-05-12T12:38:42.139Z,29.59
2023-05-12T12:41:09.083Z,29.81
2023-05-12T12:43:36.233Z,29.89
2023-05-12T12:46:03.078Z,29.96
2023-05-12T12:48:31.659Z,30.42
2023-05-12T12:51:00.661Z,30.17
2023-05-12T12:53:28.102Z,30.41
2023-05-12T12:55:56.085Z,30.36
2023-05-12T12:58:23.133Z,30.55
2023-05-12T13:00:50.516Z,30.85
2023-05-12T13:03:19.518Z,30.24
2023-05-12T13:05:47.232Z,30.23
2023-05-12T13:08:14.176Z,30.53
2023-05-12T13:10:41.517Z,30.49
2023-05-12T13:13:11.446Z,30.20
2023-05-12T13:15:39.002Z,30.44
2023-05-12T13:18:05.925Z,30.13
2023-05-12T13:20:33.302Z,29.80
2023-05-12T13:23:00.042Z,30.15
2023-05-12T13:25:26.894Z,30.11
2023-05-12T13:27:53.852Z,30.44
2023-05-12T13:30:22.104Z,30.11
2023-05-12T13:32:49.479Z,30.29
2023-05-12T13:35:16.521Z,30.10
2023-05-12T13:37:43.453Z,30.12
2023-05-12T13:40:10.906Z,30.38
2023-05-12T13:42:37.969Z,30.76
2023-05-12T13:45:06.363Z,31.12
2023-05-12T13:47:33.570Z,31.33
2023-05-12T13:50:00.761Z,31.19
2023-05-12T13:52:27.879Z,30.72
2023-05-12T13:54:54.729Z,30.76
2023-05-12T13:57:21.564Z,31.10
2023-05-12T13:59:50.045Z,31.24
2023-05-12T14:02:17.411Z,31.51
2023-05-12T14:04:44.362Z,31.05
2023-05-12T14:07:12.210Z,30.66
2023-05-12T14:09:39.164Z,30.68
2023-05-12T14:12:06.609Z,30.75
2023-05-12T14:14:33.568Z,30.78
2023-05-12T14:17:00.403Z,30.86
2023-05-12T14:19:27.244Z,31.56
2023-05-12T14:21:54.090Z,31.79
2023-05-12T14:24:21.032Z,31.03
2023-05-12T14:26:47.887Z,30.74
2023-05-12T14:29:14.741Z,31.39
2023-05-12T14:31:41.609Z,32.57
2023-05-12T14:34:08.823Z,32.33
2023-05-12T14:36:35.649Z,32.61
2023-05-12T14:39:02.700Z,32.72
2023-05-12T14:41:29.645Z,32.82
2023-05-12T14:43:57.305Z,32.88
2023-05-12T14:46:25.320Z,32.85
2023-05-12T14:48:52.219Z,33.05
2023-05-12T14:51:19.065Z,33.17
2023-05-12T14:53:46.118Z,34.05
2023-05-12T14:56:12.951Z,35.28
2023-05-12T14:58:40.014Z,34.59
2023-05-12T15:01:09.364Z,34.39
2023-05-12T15:03:36.939Z,35.63
2023-05-12T15:06:07.360Z,35.97
2023-05-12T15:08:34.843Z,36.00
2023-05-12T15:11:01.687Z,36.81
2023-05-12T15:13:28.645Z,36.83
2023-05-12T15:15:56.752Z,37.24
2023-05-12T15:18:24.079Z,38.05
2023-05-12T15:20:51.327Z,39.26
2023-05-12T15:23:18.258Z,38.97
2023-05-12T15:25:45.094Z,40.93
2023-05-12T15:28:12.050Z,38.44
2023-05-12T15:30:38.986Z,40.31
2023-05-12T15:33:06.544Z,40.03
2023-05-12T15:35:33.896Z,40.21
2023-05-12T15:38:00.758Z,39.82
2023-05-12T15:40:30.056Z,39.94
2023-05-12T15:42:57.495Z,39.53
2023-05-12T15:45:24.338Z,40.89
2023-05-12T15:47:51.263Z,40.94
2023-05-12T15:50:22.037Z,41.81
2023-05-12T15:52:49.163Z,41.61
2023-05-12T15:55:16.422Z,41.63
2023-05-12T15:57:43.262Z,41.99
2023-05-12T16:00:10.976Z,41.78
2023-05-12T16:02:40.888Z,42.02
2023-05-12T16:05:09.142Z,40.46
2023-05-12T16:07:36.082Z,40.19
2023-05-12T16:10:03.320Z,40.51
2023-05-12T16:12:30.777Z,41.03
2023-05-12T16:14:57.611Z,41.46
2023-05-12T16:17:24.850Z,41.71
2023-05-12T16:19:53.241Z,42.33
2023-05-12T16:22:20.102Z,43.31
2023-05-12T16:24:47.125Z,43.28
2023-05-12T16:27:14.076Z,43.65
2023-05-12T16:29:44.907Z,44.50
2023-05-12T16:32:11.909Z,45.65
2023-05-12T16:34:39.100Z,46.07
2023-05-12T16:37:06.150Z,45.77
2023-05-12T16:39:35.244Z,46.47
2023-05-12T16:42:02.807Z,47.73
2023-05-12T16:44:29.760Z,49.09
2023-05-12T16:46:56.488Z,50.26
2023-05-12T16:49:23.328Z,48.44
2023-05-12T16:51:50.169Z,48.29
2023-05-12T16:54:17.957Z,48.69
2023-05-12T16:56:44.888Z,48.60
2023-05-12T16:59:11.830Z,48.68
2023-05-12T17:01:39.040Z,49.36
2023-05-12T17:04:11.344Z,49.49
2023-05-12T17:06:38.183Z,50.09
2023-05-12T17:09:05.337Z,49.79
2023-05-12T17:11:32.177Z,50.25
2023-05-12T17:14:00.355Z,53.35
2023-05-12T17:16:27.148Z,52.64
2023-05-12T17:21:23.947Z,54.14
2023-05-12T17:23:50.790Z,53.81
2023-05-12T17:26:17.647Z,53.87
2023-05-12T17:28:44.924Z,56.82
2023-05-12T17:31:12.059Z,58.15
2023-05-12T17:33:39.085Z,57.87
2023-05-12T17:36:12.364Z,59.84
2023-05-12T17:38:40.682Z,60.01
2023-05-12T17:41:07.617Z,60.54
2023-05-12T17:43:34.543Z,59.78
2023-05-12T17:46:01.919Z,59.59
2023-05-12T17:48:32.630Z,58.18
2023-05-12T17:51:00.812Z,58.18
2023-05-12T17:53:27.558Z,58.52
2023-05-12T17:55:55.219Z,58.43
2023-05-12T17:58:22.682Z,58.14
2023-05-12T18:00:50.139Z,58.53
2023-05-12T18:03:22.534Z,59.17
2023-05-12T18:05:50.972Z,58.69
2023-05-12T18:08:18.144Z,61.28
2023-05-12T18:10:46.296Z,61.65
2023-05-12T18:13:14.909Z,60.65
2023-05-12T18:15:41.925Z,62.81
2023-05-12T18:18:09.625Z,62.66
2023-05-12T18:20:36.437Z,62.91
2023-05-12T18:23:03.679Z,64.08
2023-05-12T18:25:30.521Z,62.28
2023-05-12T18:27:57.620Z,61.10
2023-05-12T18:30:24.420Z,60.14
2023-05-12T18:32:51.432Z,60.07
2023-05-12T18:35:19.238Z,60.52
2023-05-12T18:37:46.267Z,61.80
2023-05-12T18:40:13.015Z,61.57
2023-05-12T18:42:40.156Z,62.57
2023-05-12T18:45:07.619Z,64.44
2023-05-12T18:47:34.502Z,62.38
2023-05-12T18:50:01.709Z,62.22
2023-05-12T18:52:28.447Z,62.69
2023-05-12T18:54:55.293Z,62.76
2023-05-12T18:57:22.239Z,64.21
2023-05-12T18:59:49.080Z,63.90
2023-05-12T19:02:16.946Z,63.10
2023-05-12T19:04:44.016Z,63.22
2023-05-12T19:07:14.725Z,63.20
2023-05-12T19:09:42.594Z,63.04
2023-05-12T19:12:12.627Z,63.54
2023-05-12T19:14:40.380Z,63.78
2023-05-12T19:17:07.219Z,63.95
2023-05-12T19:19:34.469Z,63.46
2023-05-12T19:22:02.151Z,64.16
2023-05-12T19:24:29.623Z,66.06
2023-05-12T19:26:57.044Z,68.57
2023-05-12T19:29:25.727Z,68.14
2023-05-12T19:31:53.350Z,69.95
2023-05-12T19:34:20.964Z,70.81
2023-05-12T19:36:48.025Z,68.70
2023-05-12T19:39:14.853Z,67.09
2023-05-12T19:41:41.791Z,68.11
2023-05-12T19:44:08.622Z,69.53
2023-05-12T19:46:35.671Z,69.91
2023-05-12T19:49:05.268Z,70.48
2023-05-12T19:51:32.533Z,69.17
2023-05-12T19:53:59.497Z,68.88
2023-05-12T19:56:26.734Z,68.81
2023-05-12T19:58:53.673Z,69.31
2023-05-12T20:01:20.686Z,68.78
2023-05-12T20:03:47.613Z,68.45
2023-05-12T20:06:14.509Z,68.36
2023-05-12T20:08:41.349Z,68.63
2023-05-12T20:11:08.406Z,69.28
2023-05-12T20:13:35.349Z,68.45
2023-05-12T20:16:02.385Z,68.33
2023-05-12T20:18:29.240Z,68.47
2023-05-12T20:20:56.089Z,68.93
2023-05-12T20:23:22.917Z,69.09
2023-05-12T20:25:52.006Z,70.06
2023-05-12T20:28:20.814Z,68.99
2023-05-12T20:30:47.884Z,68.97
2023-05-12T20:33:14.888Z,69.09
2023-05-12T20:35:41.945Z,69.10
2023-05-12T20:38:08.810Z,69.10
2023-05-12T20:40:35.827Z,68.84
2023-05-12T20:43:02.592Z,68.91
2023-05-12T20:45:29.410Z,69.37
2023-05-12T20:47:56.527Z,69.55
2023-05-12T20:50:23.917Z,70.63
2023-05-12T20:52:50.777Z,70.50
2023-05-12T20:55:17.577Z,70.18
2023-05-12T20:57:44.449Z,69.33
2023-05-12T21:00:13.015Z,70.95
2023-05-12T21:02:40.298Z,70.17
2023-05-12T21:05:07.320Z,71.15
2023-05-12T21:07:34.168Z,69.68
2023-05-12T21:10:02.570Z,69.31
2023-05-12T21:12:29.590Z,69.00
2023-05-12T21:14:56.636Z,69.64
2023-05-12T21:17:23.538Z,70.72
2023-05-12T21:19:50.527Z,71.47
2023-05-12T21:22:17.368Z,70.76
2023-05-12T21:24:44.516Z,71.16
2023-05-12T21:27:11.460Z,72.21
2023-05-12T21:29:38.204Z,71.58
2023-05-12T21:32:05.596Z,70.73
2023-05-12T21:34:33.115Z,70.05
2023-05-12T21:37:00.073Z,70.94
2023-05-12T21:39:27.927Z,71.66
2023-05-12T21:41:54.968Z,71.71
2023-05-12T21:44:21.842Z,72.08
2023-05-12T21:46:48.762Z,72.44
2023-05-12T21:49:15.630Z,72.59
2023-05-12T21:51:42.359Z,73.34
2023-05-12T21:54:09.488Z,73.24
2023-05-12T21:56:36.258Z,73.86
2023-05-12T21:59:02.978Z,74.79
2023-05-12T22:01:30.167Z,74.66
2023-05-12T22:03:58.358Z,75.34
2023-05-12T22:06:25.654Z,76.20
2023-05-12T22:08:53.619Z,75.62
2023-05-12T22:11:21.188Z,74.99
2023-05-12T22:13:48.745Z,75.06
2023-05-12T22:16:16.433Z,74.49
2023-05-12T22:18:43.639Z,74.75
2023-05-12T22:21:12.238Z,73.98
2023-05-12T22:23:41.227Z,73.79
2023-05-12T22:26:08.904Z,73.67
2023-05-12T22:28:35.833Z,73.61
2023-05-12T22:31:02.921Z,73.57
2023-05-12T22:33:30.649Z,74.72
2023-05-12T22:36:00.972Z,74.74
2023-05-12T22:38:27.916Z,73.56
2023-05-12T22:40:54.768Z,72.53
2023-05-12T22:43:21.902Z,72.64
2023-05-12T22:45:52.557Z,72.65
2023-05-12T22:48:19.801Z,72.24
2023-05-12T22:50:47.064Z,72.68
2023-05-12T22:53:14.806Z,72.28
2023-05-12T22:55:41.656Z,72.96
2023-05-12T22:58:09.921Z,72.01
2023-05-12T23:00:37.304Z,71.29
2023-05-12T23:03:04.490Z,71.67
2023-05-12T23:05:31.483Z,71.21
2023-05-12T23:07:58.310Z,71.58
2023-05-12T23:10:25.258Z,71.72
2023-05-12T23:12:52.122Z,71.42
2023-05-12T23:15:19.047Z,71.58
2023-05-12T23:17:45.933Z,71.95
2023-05-12T23:20:13.245Z,71.15
2023-05-12T23:22:40.198Z,71.41
2023-05-12T23:25:07.748Z,71.84
2023-05-12T23:27:35.716Z,72.53
2023-05-12T23:30:02.873Z,73.02
2023-05-12T23:32:29.906Z,73.46
2023-05-12T23:34:56.749Z,71.96
2023-05-12T23:37:24.483Z,72.20
2023-05-12T23:39:51.359Z,71.72
2023-05-12T23:42:18.223Z,71.31
2023-05-12T23:44:45.144Z,71.45
2023-05-12T23:47:11.992Z,71.38
2023-05-12T23:49:38.828Z,71.61
2023-05-12T23:52:06.182Z,71.87
2023-05-12T23:54:33.024Z,72.46
2023-05-12T23:56:59.872Z,72.94
2023-05-12T23:59:26.708Z,72.99
